createdAt,value
2023-04-19T00:00:11.696Z,9.70
2023-04-19T00:01:44.381Z,10.20
2023-04-19T00:03:17.785Z,10.90
2023-04-19T00:04:49.803Z,9.50
2023-04-19T00:06:21.675Z,10.00
2023-04-19T00:07:53.421Z,10.10
2023-04-19T00:09:25.264Z,10.40
2023-04-19T00:10:56.942Z,10.50
2023-04-19T00:12:28.647Z,10.10
2023-04-19T00:14:00.532Z,9.90
2023-04-19T00:15:32.285Z,9.30
2023-04-19T00:17:04.114Z,9.90
2023-04-19T00:18:36.471Z,10.30
2023-04-19T00:20:10.525Z,10.40
2023-04-19T00:21:42.264Z,9.80
2023-04-19T00:23:14.325Z,9.90
2023-04-19T00:24:46.060Z,10.00
2023-04-19T00:26:17.720Z,9.80
2023-04-19T00:27:52.449Z,9.70
2023-04-19T00:29:25.859Z,9.90
2023-04-19T00:30:58.090Z,10.00
2023-04-19T00:32:29.979Z,9.80
2023-04-19T00:34:03.228Z,10.00
2023-04-19T00:35:34.973Z,10.00
2023-04-19T00:37:06.735Z,10.30
2023-04-19T00:38:38.404Z,10.00
2023-04-19T00:40:10.980Z,9.80
2023-04-19T00:41:42.653Z,10.00
2023-04-19T00:43:20.862Z,10.40
2023-04-19T00:44:52.567Z,10.40
2023-04-19T00:46:25.844Z,9.20
2023-04-19T00:47:57.690Z,9.60
2023-04-19T00:49:30.479Z,9.70
2023-04-19T00:51:04.039Z,9.70
2023-04-19T00:52:36.557Z,9.00
2023-04-19T00:54:09.398Z,9.80
2023-04-19T00:55:41.284Z,9.10
2023-04-19T00:57:13.168Z,9.40
2023-04-19T00:58:46.054Z,8.50
2023-04-19T01:00:20.965Z,8.40
2023-04-19T01:01:52.873Z,8.00
2023-04-19T01:03:27.513Z,9.30
2023-04-19T01:05:14.160Z,9.70
2023-04-19T01:06:45.863Z,8.70
2023-04-19T01:08:17.548Z,10.00
2023-04-19T01:09:49.695Z,9.40
2023-04-19T01:11:23.703Z,9.50
2023-04-19T01:12:55.652Z,9.90
2023-04-19T01:14:27.435Z,10.30
2023-04-19T01:16:00.721Z,9.50
2023-04-19T01:17:33.285Z,8.90
2023-04-19T01:19:05.260Z,9.10
2023-04-19T01:20:37.041Z,9.90
2023-04-19T01:22:10.068Z,9.90
2023-04-19T01:23:41.944Z,9.10
2023-04-19T01:25:13.984Z,9.80
2023-04-19T01:26:48.081Z,9.80
2023-04-19T01:28:19.868Z,9.50
2023-04-19T01:29:51.644Z,8.90
2023-04-19T01:31:23.399Z,9.40
2023-04-19T01:32:55.324Z,9.00
2023-04-19T01:34:27.428Z,8.90
2023-04-19T01:35:59.081Z,8.60
2023-04-19T01:37:30.771Z,8.70
2023-04-19T01:39:02.554Z,8.50
2023-04-19T01:40:34.215Z,8.30
2023-04-19T01:42:06.005Z,8.80
2023-04-19T01:43:37.734Z,8.80
2023-04-19T01:45:10.304Z,8.60
2023-04-19T01:46:42.810Z,8.60
2023-04-19T01:48:14.588Z,7.50
2023-04-19T01:49:46.346Z,8.90
2023-04-19T01:51:18.186Z,8.20
2023-04-19T01:52:49.948Z,8.50
2023-04-19T01:54:21.653Z,8.20
2023-04-19T01:55:55.545Z,7.30
2023-04-19T01:57:27.439Z,8.70
2023-04-19T01:58:59.163Z,8.60
2023-04-19T02:00:30.936Z,8.40
2023-04-19T02:02:02.919Z,8.40
2023-04-19T02:03:34.837Z,8.10
2023-04-19T02:05:08.495Z,8.20
2023-04-19T02:06:40.373Z,8.30
2023-04-19T02:08:12.565Z,8.20
2023-04-19T02:09:44.396Z,7.60
2023-04-19T02:11:16.966Z,8.30
2023-04-19T02:12:48.779Z,7.60
2023-04-19T02:14:20.436Z,7.80
2023-04-19T02:15:52.092Z,7.90
2023-04-19T02:17:24.959Z,8.10
2023-04-19T02:18:56.696Z,8.60
2023-04-19T02:20:28.480Z,7.70
2023-04-19T02:22:00.267Z,8.00
2023-04-19T02:23:32.065Z,8.40
2023-04-19T02:25:05.472Z,7.00
2023-04-19T02:26:37.477Z,7.30
2023-04-19T02:28:09.770Z,6.90
2023-04-19T02:29:42.601Z,6.60
2023-04-19T02:31:14.259Z,7.00
2023-04-19T02:32:48.864Z,7.30
2023-04-19T02:34:20.702Z,7.30
2023-04-19T02:35:52.362Z,6.70
2023-04-19T02:37:24.378Z,6.90
2023-04-19T02:38:56.114Z,7.10
2023-04-19T02:40:27.732Z,6.60
2023-04-19T02:41:59.397Z,6.30
2023-04-19T02:43:31.654Z,6.40
2023-04-19T02:45:03.517Z,6.30
2023-04-19T02:46:35.345Z,6.30
2023-04-19T02:48:07.219Z,6.40
2023-04-19T02:49:41.396Z,6.30
2023-04-19T02:51:17.517Z,4.90
2023-04-19T02:52:49.255Z,5.70
2023-04-19T02:54:21.068Z,5.80
2023-04-19T02:55:52.754Z,5.00
2023-04-19T02:57:24.766Z,5.20
2023-04-19T02:59:00.136Z,5.20
2023-04-19T03:00:31.929Z,5.70
2023-04-19T03:02:09.054Z,5.20
2023-04-19T03:03:41.174Z,4.50
2023-04-19T03:05:12.971Z,5.00
2023-04-19T03:06:44.693Z,4.80
2023-04-19T03:08:16.785Z,4.90
2023-04-19T03:09:49.011Z,4.30
2023-04-19T03:11:21.111Z,4.40
2023-04-19T03:12:52.726Z,4.30
2023-04-19T03:14:24.420Z,4.10
2023-04-19T03:15:56.818Z,4.30
2023-04-19T03:17:28.628Z,4.30
2023-04-19T03:19:00.511Z,4.10
2023-04-19T03:20:34.325Z,3.60
2023-04-19T03:22:06.007Z,3.80
2023-04-19T03:23:37.959Z,3.60
2023-04-19T03:25:13.457Z,3.70
2023-04-19T03:26:46.465Z,3.30
2023-04-19T03:28:18.746Z,3.80
2023-04-19T03:30:09.793Z,3.50
2023-04-19T03:31:41.760Z,3.00
2023-04-19T03:33:15.715Z,3.70
2023-04-19T03:34:47.362Z,3.70
2023-04-19T03:36:21.756Z,3.80
2023-04-19T03:37:53.840Z,3.70
2023-04-19T03:39:25.687Z,3.70
2023-04-19T03:41:01.408Z,3.80
2023-04-19T03:42:34.905Z,3.70
2023-04-19T03:44:15.310Z,3.50
2023-04-19T03:45:48.495Z,3.70
2023-04-19T03:47:20.351Z,3.00
2023-04-19T03:48:54.021Z,3.30
2023-04-19T03:50:26.329Z,4.00
2023-04-19T03:51:58.955Z,3.50
2023-04-19T03:53:31.808Z,3.60
2023-04-19T03:55:04.169Z,3.20
2023-04-19T03:56:41.598Z,3.20
2023-04-19T03:58:13.248Z,3.20
2023-04-19T04:00:08.237Z,3.90
2023-04-19T04:01:46.382Z,3.10
2023-04-19T04:03:18.420Z,3.50
2023-04-19T04:04:55.329Z,3.50
2023-04-19T04:06:27.988Z,2.90
2023-04-19T04:07:59.693Z,3.70
2023-04-19T04:09:31.580Z,3.20
2023-04-19T04:11:03.889Z,3.20
2023-04-19T04:12:35.558Z,3.60
2023-04-19T04:14:07.344Z,3.50
2023-04-19T04:15:41.414Z,3.20
2023-04-19T04:17:14.714Z,3.50
2023-04-19T04:18:46.590Z,3.60
2023-04-19T04:20:19.404Z,3.30
2023-04-19T04:21:51.305Z,3.70
2023-04-19T04:23:25.656Z,3.70
2023-04-19T04:24:58.148Z,3.90
2023-04-19T04:26:39.283Z,3.80
2023-04-19T04:28:17.001Z,4.00
2023-04-19T04:29:49.470Z,3.50
2023-04-19T04:31:21.449Z,3.60
2023-04-19T04:32:53.358Z,3.90
2023-04-19T04:34:25.827Z,3.70
2023-04-19T04:36:02.816Z,4.30
2023-04-19T04:37:36.931Z,4.00
2023-04-19T04:39:11.917Z,4.10
2023-04-19T04:40:43.569Z,4.40
2023-04-19T04:42:15.330Z,3.80
2023-04-19T04:44:04.543Z,4.30
2023-04-19T04:45:44.350Z,4.10
2023-04-19T04:47:17.306Z,4.20
2023-04-19T04:48:55.726Z,4.10
2023-04-19T04:50:27.760Z,4.00
2023-04-19T04:52:00.083Z,3.90
2023-04-19T04:53:32.254Z,4.30
2023-04-19T04:55:04.890Z,4.10
2023-04-19T04:56:38.165Z,3.40
2023-04-19T04:58:10.535Z,4.10
2023-04-19T04:59:53.192Z,4.10
2023-04-19T05:01:25.510Z,4.00
2023-04-19T05:02:58.913Z,4.50
2023-04-19T05:04:30.852Z,4.80
2023-04-19T05:06:02.595Z,4.30
2023-04-19T05:07:34.705Z,4.40
2023-04-19T05:09:07.916Z,4.80
2023-04-19T05:10:40.636Z,4.40
2023-04-19T05:12:12.518Z,4.10
2023-04-19T05:13:44.191Z,4.70
2023-04-19T05:15:15.923Z,4.60
2023-04-19T05:16:54.299Z,4.70
2023-04-19T05:18:26.050Z,4.50
2023-04-19T05:19:57.710Z,4.50
2023-04-19T05:21:29.443Z,4.50
2023-04-19T05:23:03.338Z,4.50
2023-04-19T05:24:35.818Z,4.40
2023-04-19T05:26:07.564Z,4.70
2023-04-19T05:27:39.348Z,4.70
2023-04-19T05:29:11.715Z,4.50
2023-04-19T05:30:51.897Z,4.40
2023-04-19T05:32:23.684Z,4.50
2023-04-19T05:33:59.621Z,3.70
2023-04-19T05:35:31.881Z,4.50
2023-04-19T05:37:03.845Z,4.40
2023-04-19T05:38:35.703Z,4.20
2023-04-19T05:40:11.065Z,4.60
2023-04-19T05:41:43.514Z,4.20
2023-04-19T05:43:15.427Z,4.30
2023-04-19T05:44:47.418Z,4.20
2023-04-19T05:46:19.183Z,3.60
2023-04-19T05:47:51.007Z,3.70
2023-04-19T05:49:22.751Z,3.60
2023-04-19T05:51:14.277Z,3.60
2023-04-19T05:53:00.512Z,3.10
2023-04-19T05:54:35.886Z,3.10
2023-04-19T05:56:07.821Z,3.30
2023-04-19T05:57:39.548Z,3.30
2023-04-19T05:59:11.586Z,3.60
2023-04-19T06:00:43.604Z,3.20
2023-04-19T06:02:16.143Z,2.20
2023-04-19T06:03:52.960Z,3.20
2023-04-19T06:05:25.037Z,3.30
2023-04-19T06:06:56.792Z,4.60
2023-04-19T06:08:28.556Z,3.30
2023-04-19T06:10:00.462Z,3.40
2023-04-19T06:11:39.370Z,2.80
2023-04-19T06:13:15.796Z,3.20
2023-04-19T06:14:47.492Z,3.20
2023-04-19T06:16:19.812Z,3.10
2023-04-19T06:17:51.594Z,3.40
2023-04-19T06:19:23.497Z,3.00
2023-04-19T06:20:55.479Z,3.20
2023-04-19T06:22:27.154Z,3.20
2023-04-19T06:23:58.832Z,3.30
2023-04-19T06:25:31.141Z,3.00
2023-04-19T06:27:03.041Z,3.00
2023-04-19T06:28:36.640Z,2.90
2023-04-19T06:30:08.914Z,3.30
2023-04-19T06:31:40.651Z,2.80
2023-04-19T06:33:12.318Z,2.90
2023-04-19T06:34:43.980Z,3.00
2023-04-19T06:36:15.728Z,3.20
2023-04-19T06:37:47.345Z,2.90
2023-04-19T06:39:19.152Z,3.10
2023-04-19T06:40:50.790Z,2.70
2023-04-19T06:42:23.507Z,2.80
2023-04-19T06:43:55.247Z,2.80
2023-04-19T06:45:27.106Z,2.60
2023-04-19T06:46:58.799Z,2.70
2023-04-19T06:48:30.944Z,3.00
2023-04-19T06:50:02.773Z,3.00
2023-04-19T06:51:34.511Z,2.50
2023-04-19T06:53:06.375Z,2.70
2023-04-19T06:54:38.140Z,2.80
2023-04-19T06:56:10.564Z,3.10
2023-04-19T06:57:43.341Z,2.70
2023-04-19T06:59:19.022Z,2.70
2023-04-19T07:00:50.923Z,2.80
2023-04-19T07:02:22.800Z,2.80
2023-04-19T07:03:57.350Z,2.60
2023-04-19T07:05:31.296Z,2.40
2023-04-19T07:07:06.158Z,2.30
2023-04-19T07:08:49.396Z,2.50
2023-04-19T07:10:22.426Z,2.70
2023-04-19T07:11:54.334Z,2.60
2023-04-19T07:13:26.114Z,2.80
2023-04-19T07:14:57.820Z,2.50
2023-04-19T07:16:30.285Z,1.90
2023-04-19T07:18:02.387Z,2.40
2023-04-19T07:19:35.559Z,2.70
2023-04-19T07:21:07.251Z,2.80
2023-04-19T07:22:38.934Z,2.50
2023-04-19T07:24:10.651Z,2.40
2023-04-19T07:25:42.366Z,3.00
2023-04-19T07:27:14.460Z,2.90
2023-04-19T07:28:46.412Z,2.40
2023-04-19T07:30:18.185Z,2.50
2023-04-19T07:31:49.943Z,2.40
2023-04-19T07:33:25.283Z,2.70
2023-04-19T07:34:59.057Z,2.40
2023-04-19T07:36:31.750Z,2.60
2023-04-19T07:38:03.419Z,2.80
2023-04-19T07:39:35.161Z,2.00
2023-04-19T07:41:06.910Z,2.40
2023-04-19T07:42:38.573Z,2.50
2023-04-19T07:44:11.533Z,2.30
2023-04-19T07:45:43.279Z,2.50
2023-04-19T07:47:14.930Z,2.40
2023-04-19T07:48:46.694Z,2.60
2023-04-19T07:50:18.698Z,2.60
2023-04-19T07:51:50.614Z,2.90
2023-04-19T07:53:22.336Z,2.20
2023-04-19T07:54:54.075Z,2.30
2023-04-19T07:56:26.750Z,2.50
2023-04-19T07:57:58.470Z,2.70
2023-04-19T07:59:30.747Z,2.60
2023-04-19T08:01:03.973Z,2.30
2023-04-19T08:02:35.944Z,2.50
2023-04-19T08:04:08.074Z,2.10
2023-04-19T08:05:40.339Z,2.30
2023-04-19T08:07:12.767Z,2.00
2023-04-19T08:08:46.588Z,2.00
2023-04-19T08:10:19.943Z,2.20
2023-04-19T08:11:53.576Z,2.30
2023-04-19T08:13:25.476Z,2.10
2023-04-19T08:15:06.857Z,1.90
2023-04-19T08:18:21.904Z,2.40
2023-04-19T08:19:54.019Z,2.10
2023-04-19T08:21:38.020Z,2.40
2023-04-19T08:23:21.561Z,2.50
2023-04-19T08:24:55.992Z,1.90
2023-04-19T08:26:27.830Z,1.90
2023-04-19T08:27:59.600Z,2.20
2023-04-19T08:29:31.393Z,2.20
2023-04-19T08:31:07.598Z,1.90
2023-04-19T08:32:39.365Z,2.00
2023-04-19T08:34:11.094Z,1.90
2023-04-19T08:35:42.828Z,1.90
2023-04-19T08:37:14.517Z,2.00
2023-04-19T08:38:49.324Z,2.00
2023-04-19T08:40:31.625Z,1.80
2023-04-19T08:42:18.287Z,1.90
2023-04-19T08:44:03.498Z,2.00
2023-04-19T08:45:36.314Z,1.80
2023-04-19T08:47:09.049Z,1.70
2023-04-19T08:48:41.562Z,1.70
2023-04-19T08:50:28.260Z,1.70
2023-04-19T08:52:06.296Z,1.40
2023-04-19T08:53:39.601Z,1.40
2023-04-19T08:55:11.639Z,1.60
2023-04-19T08:56:43.363Z,1.50
2023-04-19T08:58:26.240Z,1.60
2023-04-19T09:00:08.779Z,1.40
2023-04-19T09:01:43.736Z,1.20
2023-04-19T09:03:16.443Z,1.10
2023-04-19T09:04:48.688Z,1.00
2023-04-19T09:06:20.785Z,1.10
2023-04-19T09:07:52.718Z,1.00
2023-04-19T09:11:05.865Z,1.00
2023-04-19T09:12:38.762Z,1.30
2023-04-19T09:14:16.846Z,1.60
2023-04-19T09:15:48.782Z,1.30
2023-04-19T09:17:20.599Z,1.00
2023-04-19T09:19:11.512Z,1.40
2023-04-19T09:20:57.127Z,1.70
2023-04-19T09:22:28.802Z,1.00
2023-04-19T09:24:02.423Z,1.30
2023-04-19T09:25:52.885Z,1.00
2023-04-19T09:27:36.325Z,1.30
2023-04-19T09:29:08.900Z,1.20
2023-04-19T09:32:15.431Z,1.20
2023-04-19T09:33:47.135Z,1.10
2023-04-19T09:35:18.879Z,2.10
2023-04-19T09:37:00.643Z,1.80
2023-04-19T09:38:50.393Z,1.90
2023-04-19T09:40:25.724Z,2.10
2023-04-19T09:41:58.267Z,1.90
2023-04-19T09:43:55.793Z,1.40
2023-04-19T09:45:29.708Z,2.40
2023-04-19T09:47:02.754Z,1.70
2023-04-19T09:48:37.028Z,1.90
2023-04-19T09:51:51.904Z,2.10
2023-04-19T09:53:25.694Z,2.10
2023-04-19T09:55:01.980Z,2.30
2023-04-19T09:56:37.630Z,1.80
2023-04-19T09:58:09.255Z,2.20
2023-04-19T09:59:41.016Z,2.30
2023-04-19T10:01:15.858Z,1.80
2023-04-19T10:02:57.985Z,1.80
2023-04-19T10:04:47.754Z,1.70
2023-04-19T10:08:00.091Z,2.20
2023-04-19T10:09:37.683Z,1.80
2023-04-19T10:11:14.667Z,2.00
2023-04-19T10:13:11.464Z,1.50
2023-04-19T10:14:44.088Z,2.30
2023-04-19T10:16:20.184Z,2.60
2023-04-19T10:17:52.837Z,2.20
2023-04-19T10:19:25.635Z,1.90
2023-04-19T10:21:01.801Z,2.20
2023-04-19T10:22:37.647Z,2.60
2023-04-19T10:24:13.144Z,2.00
2023-04-19T10:25:48.593Z,2.20
2023-04-19T10:27:25.749Z,2.30
2023-04-19T10:28:57.476Z,2.00
2023-04-19T10:30:29.212Z,2.20
2023-04-19T10:32:05.296Z,2.00
2023-04-19T10:33:37.889Z,2.10
2023-04-19T10:35:12.875Z,2.10
2023-04-19T10:36:46.334Z,2.10
2023-04-19T10:38:18.288Z,2.10
2023-04-19T10:39:50.585Z,2.20
2023-04-19T10:41:22.874Z,2.10
2023-04-19T10:43:12.914Z,2.40
2023-04-19T10:45:32.940Z,2.30
2023-04-19T10:47:06.018Z,2.10
2023-04-19T10:48:59.411Z,2.00
2023-04-19T10:51:05.200Z,1.90
2023-04-19T10:52:37.708Z,2.00
2023-04-19T10:54:27.423Z,2.40
2023-04-19T10:55:59.125Z,2.20
2023-04-19T10:58:07.005Z,2.20
2023-04-19T10:59:41.427Z,1.80
2023-04-19T11:01:42.881Z,1.90
2023-04-19T11:03:51.506Z,2.00
2023-04-19T11:05:23.306Z,2.20
2023-04-19T11:07:04.271Z,2.00
2023-04-19T11:08:36.000Z,2.20
2023-04-19T11:10:09.298Z,2.00
2023-04-19T11:11:40.966Z,2.10
2023-04-19T11:13:13.722Z,2.00
2023-04-19T11:14:53.043Z,1.50
2023-04-19T11:16:34.357Z,1.90
2023-04-19T11:18:19.654Z,2.00
2023-04-19T11:20:01.884Z,1.50
2023-04-19T11:21:33.696Z,2.20
2023-04-19T11:23:17.300Z,2.00
2023-04-19T11:24:49.029Z,2.20
2023-04-19T11:26:23.823Z,2.00
2023-04-19T11:27:56.013Z,2.20
2023-04-19T11:29:27.727Z,2.30
2023-04-19T11:31:00.267Z,2.40
2023-04-19T11:32:32.554Z,2.00
2023-04-19T11:34:05.084Z,1.50
2023-04-19T11:35:37.021Z,2.40
2023-04-19T11:37:11.035Z,2.80
2023-04-19T11:38:48.112Z,2.30
2023-04-19T11:40:22.750Z,2.20
2023-04-19T11:41:54.399Z,2.50
2023-04-19T11:43:36.664Z,2.80
2023-04-19T11:45:18.647Z,2.30
2023-04-19T11:47:04.172Z,2.10
2023-04-19T11:48:37.476Z,2.70
2023-04-19T11:50:38.972Z,2.50
2023-04-19T11:52:10.911Z,2.60
2023-04-19T11:53:42.652Z,2.20
2023-04-19T11:55:20.852Z,2.20
2023-04-19T11:56:59.894Z,2.70
2023-04-19T11:58:37.819Z,2.50
2023-04-19T12:00:11.889Z,2.80
2023-04-19T12:01:46.575Z,2.40
2023-04-19T12:03:26.133Z,2.80
2023-04-19T12:05:08.832Z,3.00
2023-04-19T12:06:41.173Z,2.40
2023-04-19T12:08:12.925Z,3.00
2023-04-19T12:09:49.044Z,3.00
2023-04-19T12:11:46.607Z,2.60
2023-04-19T12:13:18.734Z,2.70
2023-04-19T12:14:53.119Z,2.60
2023-04-19T12:16:28.864Z,2.70
2023-04-19T12:18:02.904Z,2.70
2023-04-19T12:19:44.669Z,2.80
2023-04-19T12:21:34.457Z,2.50
2023-04-19T12:23:11.040Z,2.60
2023-04-19T12:24:43.857Z,2.20
2023-04-19T12:26:15.579Z,2.20
2023-04-19T12:27:47.448Z,2.60
2023-04-19T12:29:19.148Z,2.10
2023-04-19T12:30:50.773Z,2.60
2023-04-19T12:32:22.499Z,2.70
2023-04-19T12:33:54.576Z,2.60
2023-04-19T12:35:30.670Z,2.30
2023-04-19T12:37:04.384Z,2.60
2023-04-19T12:38:36.034Z,2.40
2023-04-19T12:40:08.737Z,2.50
2023-04-19T12:41:40.444Z,2.50
2023-04-19T12:43:12.096Z,2.50
2023-04-19T12:44:43.877Z,2.30
2023-04-19T12:46:15.578Z,2.90
2023-04-19T12:47:50.325Z,2.60
2023-04-19T12:49:21.981Z,2.60
2023-04-19T12:50:54.406Z,2.60
2023-04-19T12:52:26.326Z,2.70
2023-04-19T12:53:58.115Z,2.60
2023-04-19T12:55:29.783Z,2.10
2023-04-19T12:57:03.371Z,2.10
2023-04-19T12:58:35.898Z,2.40
2023-04-19T13:00:10.454Z,2.30
2023-04-19T13:01:42.534Z,2.60
2023-04-19T13:03:14.333Z,2.30
2023-04-19T13:04:46.313Z,2.70
2023-04-19T13:06:18.250Z,2.00
2023-04-19T13:07:50.040Z,1.60
2023-04-19T13:09:21.925Z,2.00
2023-04-19T13:10:55.311Z,2.00
2023-04-19T13:12:28.063Z,1.90
2023-04-19T13:13:59.788Z,2.30
2023-04-19T13:15:31.496Z,2.10
2023-04-19T13:17:03.201Z,2.10
2023-04-19T13:18:35.233Z,2.40
2023-04-19T13:20:07.913Z,2.50
2023-04-19T13:21:39.614Z,2.50
2023-04-19T13:23:11.296Z,1.90
2023-04-19T13:24:42.990Z,2.00
2023-04-19T13:26:16.183Z,2.00
2023-04-19T13:27:47.935Z,2.10
2023-04-19T13:29:19.585Z,2.00
2023-04-19T13:30:51.894Z,2.10
2023-04-19T13:32:23.751Z,2.20
2023-04-19T13:33:55.758Z,2.30
2023-04-19T13:35:27.455Z,2.40
2023-04-19T13:36:59.505Z,2.40
2023-04-19T13:38:31.360Z,2.40
2023-04-19T13:40:17.484Z,2.10
2023-04-19T13:41:50.817Z,2.00
2023-04-19T13:43:22.569Z,1.90
2023-04-19T13:44:54.294Z,2.10
2023-04-19T13:46:26.001Z,1.60
2023-04-19T13:47:57.710Z,1.90
2023-04-19T13:49:29.453Z,1.60
2023-04-19T13:51:01.110Z,2.00
2023-04-19T13:52:33.228Z,1.90
2023-04-19T13:54:05.074Z,1.60
2023-04-19T13:55:36.987Z,1.70
2023-04-19T13:57:08.588Z,2.10
2023-04-19T13:58:40.406Z,2.10
2023-04-19T14:00:12.687Z,1.80
2023-04-19T14:01:44.328Z,1.60
2023-04-19T14:03:16.345Z,1.90
2023-04-19T14:04:48.134Z,1.90
2023-04-19T14:06:19.801Z,1.90
2023-04-19T14:07:52.353Z,2.20
2023-04-19T14:09:24.075Z,2.20
2023-04-19T14:10:55.820Z,2.00
2023-04-19T14:12:27.509Z,2.40
2023-04-19T14:13:59.164Z,2.30
2023-04-19T14:15:30.987Z,2.30
2023-04-19T14:17:02.697Z,1.70
2023-04-19T14:18:34.333Z,2.30
2023-04-19T14:20:07.497Z,1.90
2023-04-19T14:21:39.550Z,2.80
2023-04-19T14:23:11.429Z,2.30
2023-04-19T14:24:43.210Z,2.20
2023-04-19T14:26:16.211Z,1.90
2023-04-19T14:27:47.958Z,2.20
2023-04-19T14:29:19.687Z,2.50
2023-04-19T14:30:52.015Z,2.10
2023-04-19T14:32:26.652Z,2.30
2023-04-19T14:33:59.785Z,2.50
2023-04-19T14:35:31.859Z,2.30
2023-04-19T14:37:03.563Z,2.60
2023-04-19T14:38:35.587Z,2.50
2023-04-19T14:40:08.347Z,2.70
2023-04-19T14:41:40.020Z,2.60
2023-04-19T14:43:15.890Z,2.80
2023-04-19T14:44:47.604Z,2.30
2023-04-19T14:46:19.462Z,2.70
2023-04-19T14:47:51.288Z,2.40
2023-04-19T14:49:23.023Z,2.40
2023-04-19T14:50:55.865Z,2.20
2023-04-19T14:52:27.627Z,2.40
2023-04-19T14:53:59.511Z,2.80
2023-04-19T14:55:31.246Z,2.80
2023-04-19T14:57:03.418Z,2.30
2023-04-19T14:58:35.488Z,2.20
2023-04-19T15:00:08.213Z,2.70
2023-04-19T15:01:39.878Z,2.70
2023-04-19T15:03:11.822Z,2.70
2023-04-19T15:04:43.835Z,2.50
2023-04-19T15:06:16.035Z,2.30
2023-04-19T15:07:47.715Z,2.40
2023-04-19T15:09:19.442Z,3.20
2023-04-19T15:10:51.205Z,2.90
2023-04-19T15:12:22.916Z,2.70
2023-04-19T15:13:54.671Z,2.70
2023-04-19T15:15:26.805Z,2.30
2023-04-19T15:16:58.587Z,2.60
2023-04-19T15:18:30.557Z,2.70
2023-04-19T15:20:02.227Z,2.80
2023-04-19T15:21:34.263Z,2.90
2023-04-19T15:23:05.996Z,2.60
2023-04-19T15:24:37.666Z,2.80
2023-04-19T15:26:09.846Z,2.80
2023-04-19T15:27:42.191Z,2.80
2023-04-19T15:29:14.656Z,3.00
2023-04-19T15:30:59.002Z,2.80
2023-04-19T15:32:34.149Z,3.20
2023-04-19T15:34:05.971Z,2.70
2023-04-19T15:35:37.676Z,2.80
2023-04-19T15:37:09.786Z,2.00
2023-04-19T15:38:43.804Z,2.40
2023-04-19T15:40:17.011Z,2.10
2023-04-19T15:41:49.411Z,1.90
2023-04-19T15:43:21.360Z,1.80
2023-04-19T15:44:53.103Z,2.10
2023-04-19T15:46:24.914Z,2.20
2023-04-19T15:47:56.586Z,2.50
2023-04-19T15:49:28.210Z,2.40
2023-04-19T15:51:01.262Z,2.30
2023-04-19T15:52:33.031Z,2.10
2023-04-19T15:54:05.852Z,2.50
2023-04-19T15:55:37.724Z,2.40
2023-04-19T15:57:09.359Z,2.60
2023-04-19T15:58:42.136Z,2.40
2023-04-19T16:00:14.585Z,2.40
2023-04-19T16:01:47.583Z,2.60
2023-04-19T16:03:19.460Z,2.50
2023-04-19T16:04:51.527Z,3.10
2023-04-19T16:06:23.418Z,3.20
2023-04-19T16:08:06.710Z,3.10
2023-04-19T16:09:38.594Z,3.40
2023-04-19T16:11:10.343Z,3.50
2023-04-19T16:12:43.368Z,3.10
2023-04-19T16:14:15.081Z,3.50
2023-04-19T16:15:47.128Z,3.30
2023-04-19T16:17:18.757Z,3.70
2023-04-19T16:18:50.943Z,3.40
2023-04-19T16:20:22.770Z,3.90
2023-04-19T16:21:54.479Z,3.90
2023-04-19T16:23:26.284Z,3.20
2023-04-19T16:24:57.980Z,3.70
2023-04-19T16:26:29.739Z,3.70
2023-04-19T16:28:01.861Z,4.00
2023-04-19T16:29:34.644Z,3.40
2023-04-19T16:31:06.350Z,3.20
2023-04-19T16:32:38.559Z,3.50
2023-04-19T16:34:10.390Z,3.50
2023-04-19T16:35:42.174Z,3.50
2023-04-19T16:37:16.096Z,2.90
2023-04-19T16:38:47.853Z,3.40
2023-04-19T16:40:22.132Z,3.70
2023-04-19T16:41:53.872Z,3.50
2023-04-19T16:43:25.519Z,3.10
2023-04-19T16:44:57.172Z,3.20
2023-04-19T16:46:29.093Z,3.40
2023-04-19T16:48:01.010Z,2.60
2023-04-19T16:49:32.720Z,2.50
2023-04-19T16:51:05.244Z,2.60
2023-04-19T16:52:36.952Z,2.40
2023-04-19T16:54:08.814Z,1.80
2023-04-19T16:55:41.185Z,2.20
2023-04-19T16:57:12.983Z,2.60
2023-04-19T16:58:44.958Z,2.80
2023-04-19T17:00:17.524Z,2.40
2023-04-19T17:01:49.270Z,2.40
2023-04-19T17:03:22.002Z,1.90
2023-04-19T17:04:54.300Z,1.60
2023-04-19T17:06:26.412Z,1.80
2023-04-19T17:07:58.073Z,1.80
2023-04-19T17:09:30.674Z,1.70
2023-04-19T17:11:02.399Z,1.90
2023-04-19T17:12:34.205Z,2.70
2023-04-19T17:14:06.588Z,2.90
2023-04-19T17:15:38.844Z,2.80
2023-04-19T17:17:10.591Z,2.60
2023-04-19T17:18:42.267Z,2.30
2023-04-19T17:20:15.257Z,3.10
2023-04-19T17:21:47.414Z,2.40
2023-04-19T17:23:19.066Z,2.00
2023-04-19T17:24:50.873Z,2.50
2023-04-19T17:26:22.675Z,2.10
2023-04-19T17:27:54.873Z,2.10
2023-04-19T17:29:27.113Z,2.60
2023-04-19T17:30:58.912Z,2.40
2023-04-19T17:32:30.588Z,2.30
2023-04-19T17:34:02.501Z,2.30
2023-04-19T17:35:34.252Z,2.00
2023-04-19T17:37:05.953Z,2.20
2023-04-19T17:38:37.658Z,1.90
2023-04-19T17:40:10.536Z,1.80
2023-04-19T17:41:42.291Z,2.50
2023-04-19T17:43:15.016Z,2.50
2023-04-19T17:44:47.232Z,2.30
2023-04-19T17:46:19.307Z,2.10
2023-04-19T17:47:55.777Z,2.30
2023-04-19T17:49:27.764Z,2.40
2023-04-19T17:50:59.532Z,2.10
2023-04-19T17:52:31.496Z,2.00
2023-04-19T17:54:03.173Z,1.90
2023-04-19T17:55:35.082Z,2.00
2023-04-19T17:57:06.795Z,2.00
2023-04-19T17:58:38.567Z,1.50
2023-04-19T18:00:11.806Z,2.20
2023-04-19T18:01:43.532Z,2.30
2023-04-19T18:03:15.937Z,2.50
2023-04-19T18:04:47.960Z,2.60
2023-04-19T18:06:20.882Z,2.30
2023-04-19T18:07:52.616Z,1.90
2023-04-19T18:09:24.349Z,2.30
2023-04-19T18:10:55.964Z,2.30
2023-04-19T18:12:27.969Z,2.10
2023-04-19T18:13:59.653Z,2.50
2023-04-19T18:15:31.309Z,2.30
2023-04-19T18:17:05.448Z,2.10
2023-04-19T18:18:37.192Z,2.30
2023-04-19T18:20:10.423Z,2.30
2023-04-19T18:21:43.664Z,2.90
2023-04-19T18:23:15.368Z,2.50
2023-04-19T18:24:47.385Z,2.40
2023-04-19T18:26:19.036Z,2.10
2023-04-19T18:27:50.679Z,2.50
2023-04-19T18:29:24.178Z,2.50
2023-04-19T18:30:56.676Z,2.40
2023-04-19T18:32:30.070Z,2.40
2023-04-19T18:34:02.468Z,2.30
2023-04-19T18:35:36.453Z,2.20
2023-04-19T18:37:16.592Z,2.70
2023-04-19T18:38:48.430Z,2.70
2023-04-19T18:40:20.142Z,2.20
2023-04-19T18:41:51.883Z,2.40
2023-04-19T18:43:25.103Z,2.60
2023-04-19T18:44:56.906Z,2.40
2023-04-19T18:46:29.732Z,2.60
2023-04-19T18:48:01.640Z,2.20
2023-04-19T18:49:33.415Z,2.20
2023-04-19T18:51:10.056Z,2.20
2023-04-19T18:52:41.780Z,2.80
2023-04-19T18:54:13.450Z,1.70
2023-04-19T18:55:48.481Z,2.60
2023-04-19T18:57:23.412Z,2.50
2023-04-19T18:58:59.779Z,2.60
2023-04-19T19:00:32.731Z,2.30
2023-04-19T19:02:04.681Z,2.40
2023-04-19T19:05:13.913Z,2.40
2023-04-19T19:06:46.063Z,2.50
2023-04-19T19:08:18.144Z,2.50
2023-04-19T19:09:55.897Z,2.50
2023-04-19T19:11:54.258Z,2.30
2023-04-19T19:13:19.976Z,2.10
2023-04-19T19:14:52.853Z,2.50
2023-04-19T19:16:25.419Z,2.40
2023-04-19T19:17:57.313Z,2.70
2023-04-19T19:19:29.974Z,2.50
2023-04-19T19:21:01.611Z,2.40
2023-04-19T19:22:34.139Z,2.50
2023-04-19T19:24:06.669Z,2.50
2023-04-19T19:25:38.417Z,1.90
2023-04-19T19:27:10.030Z,2.40
2023-04-19T19:28:43.277Z,2.30
2023-04-19T19:30:15.241Z,1.90
2023-04-19T19:31:46.982Z,2.60
2023-04-19T19:33:19.474Z,3.00
2023-04-19T19:34:56.564Z,2.20
2023-04-19T19:36:32.677Z,2.30
2023-04-19T19:38:04.502Z,2.60
2023-04-19T19:39:36.328Z,2.40
2023-04-19T19:41:49.565Z,2.00
2023-04-19T19:43:01.135Z,2.40
2023-04-19T19:44:32.942Z,1.80
2023-04-19T19:46:04.845Z,2.20
2023-04-19T19:47:39.160Z,2.10
2023-04-19T19:49:15.015Z,2.30
2023-04-19T19:51:17.386Z,2.00
2023-04-19T19:52:38.737Z,2.10
2023-04-19T19:54:10.546Z,2.30
2023-04-19T19:55:42.228Z,2.40
2023-04-19T19:58:01.596Z,1.60
2023-04-19T19:59:06.087Z,2.50
2023-04-19T20:00:47.370Z,2.30
2023-04-19T20:02:19.888Z,2.30
2023-04-19T20:03:55.908Z,2.10
2023-04-19T20:05:28.696Z,2.40
2023-04-19T20:08:40.100Z,1.90
2023-04-19T20:10:14.733Z,2.00
2023-04-19T20:11:46.439Z,2.00
2023-04-19T20:13:18.134Z,2.30
2023-04-19T20:14:49.850Z,2.10
2023-04-19T20:16:23.341Z,1.70
2023-04-19T20:17:55.272Z,1.90
2023-04-19T20:19:27.422Z,2.30
2023-04-19T20:20:59.244Z,2.00
2023-04-19T20:22:31.096Z,2.20
2023-04-19T20:24:05.758Z,2.50
2023-04-19T20:25:38.660Z,2.00
2023-04-19T20:27:10.292Z,2.40
2023-04-19T20:28:41.963Z,2.10
2023-04-19T20:30:14.327Z,2.40
2023-04-19T20:31:46.099Z,1.70
2023-04-19T20:33:17.767Z,2.50
2023-04-19T20:34:49.402Z,2.40
2023-04-19T20:36:23.118Z,2.10
2023-04-19T20:37:54.839Z,2.30
2023-04-19T20:39:26.576Z,1.80
2023-04-19T20:40:58.213Z,2.20
2023-04-19T20:42:29.839Z,2.10
2023-04-19T20:44:02.254Z,2.20
2023-04-19T20:45:34.134Z,2.20
2023-04-19T20:47:06.258Z,2.30
2023-04-19T20:48:37.923Z,2.00
2023-04-19T20:50:10.362Z,2.30
2023-04-19T20:51:42.885Z,2.40
2023-04-19T20:53:14.534Z,2.10
2023-04-19T20:54:46.241Z,2.10
2023-04-19T20:56:17.940Z,2.40
2023-04-19T20:57:49.578Z,2.50